Airfield :
LOGIN :

Register | Disclaimer

   EN    FR    IT 

 










Legend :    VFR   Marginal VFR   IFR   Intensive IFR   Very Intensive IFR
Visi :
Ceiling :
>= 8 km
>= 3000ft
5 to 8 km
1000 to 3000 ft
1500m to 5 km
500 to 1000 ft
800 to 1500m
200 to 500 ft
< 800m
< 200 ft
Symbols :   Thunderstorms  Fog  Heavy snow  Heavy precipitations  Wind > 20 kt
SIGMETs :     Misc.  Thunderstorms  Icing  Turbulence  Mountain Waves  Volcanic Ashes







- Airport Elevation : 284 ft


EGUW - RAF Wattisham

CURRENT METAR :
  • 201250Z 24014KT 9999 FEW023 11/05 Q1019 BLU NOSIG

EXPIRED METARs :
  • 201150Z 23015KT 9999 SCT022 12/06 Q1019 WHT TEMPO FEW022 BLU
  • 201118Z 23014KT 9999 SCT018 10/06 Q1019 WHT TEMPO FEW020 BLU
  • 201050Z 22012KT 9999 FEW016 SCT070 10/06 Q1019 BLU TEMPO SCT018 WHT

TAF TAF EGUW
Valid from the 20 at 12:00 until the 20 at 21:00 UTC


201030Z 2012/2021 21013KT 9999 FEW018
PROB30
TEMPO 2012/2014 23015G25KT SCT018
No reported NOTAMs for that airfield.
2 SIGMETs reported for the London FIR (EGTT) :
 
Severe mountain waves
EGTT SIGMET 03 VALID 201330/201730 EGRR
EGTT LONDON FIR SEV MTW FCST WI N5500 W00116 - N5430 W00110 - N5245 W00200 - N5245 W00400 - N5500 W00330 - N5500 W00116 FL030/250 STNR WKN=
Severe mountain waves
EGTT SIGMET 02 VALID 200930/201330 EGRR
EGTT LONDON FIR SEV MTW FCST WI N5500 E00006 - N5430 E00009 - N5224 W00209 - N5222 W00327 - N5355 W00530 - N5500 W00530 - N5500 E00006 FL030/250 STNR NC=



MET'MAP, your aeronautical weather chart ! - Copyright ORBIFLY December 2007 - Disclaimer

ORBIFLY MET'MAP TEAM :

Programming & Development : Alexandra Zaïnal
Concept & Development : Baudouin d'Aumeries
Co-Development & Prog : Marc-Olivier Méhu
Technical & hardware support : Manuel Goepfert

Contact : metmap@orbifly.com




SOURCES & CREDITS :

   NOAA